createdAt,value
2019-03-30T00:01:54.989Z,60.10
2019-03-30T00:04:24.747Z,60.60
2019-03-30T00:06:53.721Z,60.80
2019-03-30T00:09:23.900Z,60.50
2019-03-30T00:11:57.634Z,60.40
2019-03-30T00:14:28.923Z,60.60
2019-03-30T00:16:57.926Z,60.40
2019-03-30T00:19:34.880Z,60.90
2019-03-30T00:21:58.181Z,60.30
2019-03-30T00:24:27.248Z,60.20
2019-03-30T00:26:56.094Z,60.20
2019-03-30T00:29:25.330Z,60.30
2019-03-30T00:31:54.177Z,60.40
2019-03-30T00:34:24.215Z,60.00
2019-03-30T00:36:53.209Z,60.10
2019-03-30T00:39:21.998Z,60.40
2019-03-30T00:41:50.757Z,60.10
2019-03-30T00:44:19.631Z,60.10
2019-03-30T00:46:48.495Z,59.70
2019-03-30T00:49:17.317Z,60.10
2019-03-30T00:51:46.172Z,60.00
2019-03-30T00:54:15.510Z,59.80
2019-03-30T00:56:44.424Z,60.00
2019-03-30T00:59:13.701Z,59.70
2019-03-30T01:01:42.642Z,59.80
2019-03-30T01:04:11.484Z,60.60
2019-03-30T01:06:41.510Z,60.50
2019-03-30T01:09:10.562Z,60.30
2019-03-30T01:11:39.354Z,60.40
2019-03-30T01:14:09.543Z,60.60
2019-03-30T01:16:38.379Z,60.90
2019-03-30T01:19:07.523Z,61.10
2019-03-30T01:21:36.415Z,61.20
2019-03-30T01:24:05.256Z,60.60
2019-03-30T01:26:34.192Z,60.60
2019-03-30T01:29:03.492Z,60.50
2019-03-30T01:31:32.310Z,61.00
2019-03-30T01:34:01.196Z,61.30
2019-03-30T01:36:30.075Z,61.00
2019-03-30T01:38:59.624Z,60.80
2019-03-30T01:41:28.449Z,60.60
2019-03-30T01:43:57.264Z,60.80
2019-03-30T01:46:26.145Z,60.80
2019-03-30T01:48:54.941Z,60.90
2019-03-30T01:51:23.865Z,60.80
2019-03-30T01:53:54.111Z,60.80
2019-03-30T01:56:23.055Z,61.10
2019-03-30T01:58:51.942Z,60.90
2019-03-30T02:01:20.940Z,61.00
2019-03-30T02:03:49.972Z,60.70
2019-03-30T02:06:18.833Z,60.10
2019-03-30T02:08:49.736Z,59.80
2019-03-30T02:11:18.599Z,59.60
2019-03-30T02:13:47.401Z,59.30
2019-03-30T02:16:17.516Z,58.90
2019-03-30T02:18:46.374Z,59.10
2019-03-30T02:21:15.270Z,59.00
2019-03-30T02:23:44.102Z,59.10
2019-03-30T02:26:12.894Z,59.70
2019-03-30T02:28:41.788Z,59.80
2019-03-30T02:31:10.647Z,60.00
2019-03-30T02:33:39.451Z,60.10
2019-03-30T02:36:08.260Z,60.10
2019-03-30T02:38:37.362Z,60.00
2019-03-30T02:41:08.348Z,59.70
2019-03-30T02:43:36.925Z,59.70
2019-03-30T02:46:06.854Z,59.60
2019-03-30T02:48:35.626Z,59.90
2019-03-30T02:51:04.534Z,59.70
2019-03-30T02:53:33.305Z,60.20
2019-03-30T02:56:02.161Z,59.40
2019-03-30T02:58:31.037Z,59.50
2019-03-30T03:01:00.480Z,59.10
2019-03-30T03:03:29.365Z,59.10
2019-03-30T03:05:59.248Z,59.30
2019-03-30T03:08:28.187Z,59.10
2019-03-30T03:10:57.028Z,59.10
2019-03-30T03:13:25.801Z,59.00
2019-03-30T03:15:54.677Z,59.00
2019-03-30T03:18:23.477Z,59.20
2019-03-30T03:21:06.604Z,59.10
2019-03-30T03:23:23.394Z,58.90
2019-03-30T03:25:53.701Z,59.00
2019-03-30T03:28:22.533Z,59.10
2019-03-30T03:30:51.397Z,59.20
2019-03-30T03:33:20.319Z,59.70
2019-03-30T03:35:49.252Z,59.20
2019-03-30T03:38:18.142Z,58.70
2019-03-30T03:40:48.642Z,58.20
2019-03-30T03:43:17.529Z,58.60
2019-03-30T03:45:46.334Z,58.30
2019-03-30T03:48:15.192Z,58.20
2019-03-30T03:50:45.415Z,58.00
2019-03-30T03:53:15.088Z,57.70
2019-03-30T03:55:45.275Z,58.10
2019-03-30T03:58:15.606Z,58.30
2019-03-30T04:00:45.261Z,58.00
2019-03-30T04:03:17.283Z,57.90
2019-03-30T04:05:47.351Z,57.80
2019-03-30T04:08:16.200Z,57.60
2019-03-30T04:10:47.830Z,57.40
2019-03-30T04:13:16.766Z,57.30
2019-03-30T04:15:47.598Z,57.50
2019-03-30T04:18:18.245Z,57.40
2019-03-30T04:20:47.035Z,56.90
2019-03-30T04:23:18.239Z,56.60
2019-03-30T04:25:47.938Z,56.60
2019-03-30T04:28:17.094Z,56.70
2019-03-30T04:30:45.899Z,56.30
2019-03-30T04:33:16.170Z,57.10
2019-03-30T04:35:45.993Z,57.60
2019-03-30T04:38:16.228Z,57.30
2019-03-30T04:40:45.862Z,57.10
2019-03-30T04:43:14.685Z,56.70
2019-03-30T04:45:44.517Z,56.80
2019-03-30T04:48:14.057Z,56.70
2019-03-30T04:50:44.335Z,56.80
2019-03-30T04:53:13.230Z,57.20
2019-03-30T04:55:42.023Z,56.90
2019-03-30T04:58:11.179Z,56.70
2019-03-30T05:00:40.949Z,56.30
2019-03-30T05:03:11.122Z,56.20
2019-03-30T05:05:42.911Z,56.80
2019-03-30T05:08:10.354Z,57.00
2019-03-30T05:10:39.204Z,56.90
2019-03-30T05:13:10.217Z,56.40
2019-03-30T05:15:41.950Z,56.30
2019-03-30T05:18:12.910Z,56.80
2019-03-30T05:20:41.734Z,56.90
2019-03-30T05:23:12.115Z,57.00
2019-03-30T05:25:42.354Z,56.40
2019-03-30T05:28:11.203Z,56.70
2019-03-30T05:30:40.721Z,56.80
2019-03-30T05:33:09.514Z,56.60
2019-03-30T05:35:40.360Z,56.30
2019-03-30T05:38:09.207Z,56.80
2019-03-30T05:40:39.044Z,56.30
2019-03-30T05:43:07.901Z,56.20
2019-03-30T05:45:38.169Z,56.30
2019-03-30T05:48:06.981Z,56.00
2019-03-30T05:50:35.817Z,55.90
2019-03-30T05:53:04.638Z,57.00
2019-03-30T05:55:33.587Z,57.00
2019-03-30T05:58:02.322Z,56.40
2019-03-30T06:00:31.789Z,56.60
2019-03-30T06:03:01.595Z,56.70
2019-03-30T06:05:31.002Z,56.40
2019-03-30T06:07:59.938Z,56.50
2019-03-30T06:10:28.754Z,56.10
2019-03-30T06:12:57.663Z,56.30
2019-03-30T06:15:27.439Z,56.40
2019-03-30T06:17:56.225Z,56.10
2019-03-30T06:20:25.122Z,56.20
2019-03-30T06:22:56.343Z,56.10
2019-03-30T06:25:25.270Z,55.60
2019-03-30T06:27:54.019Z,55.00
2019-03-30T06:30:25.831Z,54.80
2019-03-30T06:32:54.851Z,53.70
2019-03-30T06:35:23.732Z,53.10
2019-03-30T06:37:52.630Z,52.70
2019-03-30T06:40:22.115Z,51.90
2019-03-30T06:42:50.953Z,52.30
2019-03-30T06:45:21.847Z,51.40
2019-03-30T06:47:50.711Z,51.30
2019-03-30T06:50:19.736Z,51.10
2019-03-30T06:52:57.346Z,49.80
2019-03-30T06:55:20.999Z,49.90
2019-03-30T06:57:49.876Z,49.50
2019-03-30T07:00:21.632Z,49.20
2019-03-30T07:02:50.489Z,49.10
2019-03-30T07:05:23.919Z,48.60
2019-03-30T07:07:52.880Z,48.90
2019-03-30T07:10:24.017Z,47.60
2019-03-30T07:12:54.381Z,45.80
2019-03-30T07:15:25.797Z,44.20
2019-03-30T07:17:57.180Z,42.10
2019-03-30T07:20:27.832Z,40.50
2019-03-30T07:23:10.684Z,39.80
2019-03-30T07:25:45.405Z,41.10
2019-03-30T07:28:15.202Z,40.80
2019-03-30T07:30:44.048Z,40.50
2019-03-30T07:33:12.786Z,38.80
2019-03-30T07:35:42.917Z,37.80
2019-03-30T07:38:11.794Z,35.30
2019-03-30T07:40:40.565Z,32.00
2019-03-30T07:43:09.427Z,30.60
2019-03-30T07:45:39.572Z,29.00
2019-03-30T07:48:09.034Z,27.80
2019-03-30T07:50:37.914Z,27.20
2019-03-30T07:53:07.526Z,26.60
2019-03-30T07:55:36.642Z,26.30
2019-03-30T07:58:05.726Z,25.40
2019-03-30T08:00:34.699Z,25.50
2019-03-30T08:03:04.220Z,25.10
2019-03-30T08:05:33.176Z,25.60
2019-03-30T08:08:03.296Z,24.80
2019-03-30T08:10:32.209Z,24.80
2019-03-30T08:13:01.127Z,24.50
2019-03-30T08:15:30.787Z,22.90
2019-03-30T08:17:59.680Z,22.00
2019-03-30T08:20:31.304Z,21.50
2019-03-30T08:23:00.274Z,21.20
2019-03-30T08:25:29.377Z,21.50
2019-03-30T08:27:58.274Z,21.30
2019-03-30T08:30:27.302Z,21.30
2019-03-30T08:32:57.721Z,21.50
2019-03-30T08:35:26.620Z,20.90
2019-03-30T08:37:56.295Z,21.60
2019-03-30T08:40:25.273Z,21.80
2019-03-30T08:42:56.476Z,21.30
2019-03-30T08:45:25.418Z,20.70
2019-03-30T08:47:54.333Z,19.90
2019-03-30T08:50:23.240Z,20.30
2019-03-30T08:52:52.566Z,19.80
2019-03-30T08:55:21.430Z,20.00
2019-03-30T08:57:51.640Z,19.90
2019-03-30T09:00:23.369Z,20.30
2019-03-30T09:02:52.265Z,20.20
2019-03-30T09:05:21.077Z,19.90
2019-03-30T09:07:49.987Z,19.20
2019-03-30T09:10:19.146Z,19.50
2019-03-30T09:12:47.929Z,19.00
2019-03-30T09:15:16.867Z,19.30
2019-03-30T09:17:45.817Z,19.30
2019-03-30T09:20:14.725Z,19.30
2019-03-30T09:22:43.592Z,19.70
2019-03-30T09:25:12.472Z,19.10
2019-03-30T09:27:41.424Z,19.50
2019-03-30T09:30:12.589Z,19.30
2019-03-30T09:32:44.823Z,20.60
2019-03-30T09:35:12.490Z,20.90
2019-03-30T09:37:41.315Z,20.90
2019-03-30T09:40:10.345Z,20.80
2019-03-30T09:42:48.450Z,20.20
2019-03-30T09:45:17.353Z,20.10
2019-03-30T09:47:46.247Z,19.70
2019-03-30T09:50:15.165Z,20.10
2019-03-30T09:52:45.433Z,20.50
2019-03-30T09:55:15.900Z,20.30
2019-03-30T09:57:45.525Z,20.00
2019-03-30T10:00:14.706Z,20.30
2019-03-30T10:02:45.430Z,19.70
2019-03-30T10:05:14.306Z,20.00
2019-03-30T10:07:43.138Z,20.50
2019-03-30T10:10:11.957Z,19.90
2019-03-30T10:12:40.830Z,19.60
2019-03-30T10:15:09.953Z,19.60
2019-03-30T10:17:38.920Z,19.00
2019-03-30T10:20:08.013Z,17.90
2019-03-30T10:22:36.878Z,18.50
2019-03-30T10:25:06.627Z,19.10
2019-03-30T10:27:36.598Z,19.50
2019-03-30T10:30:07.843Z,19.20
2019-03-30T10:32:36.691Z,19.00
2019-03-30T10:35:07.694Z,19.30
2019-03-30T10:37:36.497Z,18.40
2019-03-30T10:40:08.538Z,18.80
2019-03-30T10:42:37.442Z,18.20
2019-03-30T10:45:10.221Z,18.00
2019-03-30T10:47:39.031Z,18.00
2019-03-30T10:50:09.215Z,18.30
2019-03-30T10:52:38.037Z,17.60
2019-03-30T10:55:07.881Z,17.50
2019-03-30T10:57:37.285Z,18.00
2019-03-30T11:00:09.298Z,16.90
2019-03-30T11:02:40.403Z,16.50
2019-03-30T11:05:10.702Z,16.20
2019-03-30T11:07:40.988Z,16.50
2019-03-30T11:10:13.059Z,16.20
2019-03-30T11:12:42.969Z,15.90
2019-03-30T11:15:11.884Z,15.90
2019-03-30T11:17:40.715Z,15.00
2019-03-30T11:20:09.544Z,15.50
2019-03-30T11:22:38.374Z,14.90
2019-03-30T11:25:09.061Z,14.40
2019-03-30T11:27:38.005Z,15.40
2019-03-30T11:30:10.590Z,15.20
2019-03-30T11:32:39.442Z,15.20
2019-03-30T11:35:11.668Z,15.00
2019-03-30T11:37:40.577Z,15.00
2019-03-30T11:40:09.482Z,16.00
2019-03-30T11:42:38.413Z,15.30
2019-03-30T11:45:07.798Z,15.20
2019-03-30T11:47:36.639Z,15.40
2019-03-30T11:50:07.068Z,14.60
2019-03-30T11:52:37.994Z,14.30
2019-03-30T11:55:21.118Z,14.20
2019-03-30T11:57:38.767Z,14.60
2019-03-30T12:00:08.078Z,14.60
2019-03-30T12:02:36.937Z,13.90
2019-03-30T12:05:11.011Z,13.50
2019-03-30T12:07:44.182Z,13.90
2019-03-30T12:10:23.302Z,14.60
2019-03-30T12:12:52.261Z,15.50
2019-03-30T12:15:21.606Z,15.60
2019-03-30T12:17:50.546Z,14.60
2019-03-30T12:20:19.489Z,14.40
2019-03-30T12:22:48.351Z,15.50
2019-03-30T12:25:17.338Z,16.60
2019-03-30T12:27:50.378Z,16.40
2019-03-30T12:30:21.423Z,16.70
2019-03-30T12:32:50.295Z,15.60
2019-03-30T12:35:21.406Z,17.10
2019-03-30T12:37:51.125Z,18.50
2019-03-30T12:40:24.774Z,18.80
2019-03-30T12:42:54.128Z,18.90
2019-03-30T12:45:24.470Z,19.40
2019-03-30T12:47:57.807Z,19.10
2019-03-30T12:50:26.607Z,18.90
2019-03-30T12:52:56.482Z,19.00
2019-03-30T12:55:30.488Z,18.50
2019-03-30T12:57:59.398Z,18.80
2019-03-30T13:00:28.348Z,17.70
2019-03-30T13:02:57.416Z,17.40
2019-03-30T13:05:26.302Z,17.20
2019-03-30T13:07:55.060Z,18.30
2019-03-30T13:10:23.901Z,18.20
2019-03-30T13:12:52.849Z,18.80
2019-03-30T13:15:22.875Z,18.00
2019-03-30T13:17:51.785Z,18.10
2019-03-30T13:20:23.214Z,18.10
2019-03-30T13:22:54.422Z,19.40
2019-03-30T13:25:23.267Z,19.30
2019-03-30T13:27:53.511Z,18.80
2019-03-30T13:30:22.819Z,18.30
2019-03-30T13:32:53.455Z,18.90
2019-03-30T13:35:22.283Z,19.30
2019-03-30T13:37:51.190Z,18.20
2019-03-30T13:40:20.066Z,18.50
2019-03-30T13:42:48.918Z,18.10
2019-03-30T13:45:17.788Z,18.50
2019-03-30T13:47:46.731Z,17.90
2019-03-30T13:50:15.621Z,18.00
2019-03-30T13:52:45.135Z,18.40
2019-03-30T13:55:14.689Z,18.30
2019-03-30T13:57:43.481Z,19.10
2019-03-30T14:00:12.982Z,19.50
2019-03-30T14:02:43.991Z,18.70
2019-03-30T14:05:12.891Z,19.30
2019-03-30T14:07:41.731Z,19.60
2019-03-30T14:10:11.250Z,20.30
2019-03-30T14:12:40.466Z,20.50
2019-03-30T14:15:09.732Z,20.90
2019-03-30T14:17:38.642Z,20.50
2019-03-30T14:20:07.986Z,20.50
2019-03-30T14:22:38.775Z,20.70
2019-03-30T14:25:11.976Z,20.60
2019-03-30T14:27:39.679Z,21.30
2019-03-30T14:30:11.257Z,21.90
2019-03-30T14:32:40.579Z,21.80
2019-03-30T14:35:12.006Z,21.70
2019-03-30T14:37:40.804Z,21.30
2019-03-30T14:40:12.186Z,21.60
2019-03-30T14:42:41.048Z,22.70
2019-03-30T14:45:10.540Z,22.80
2019-03-30T14:47:39.451Z,23.30
2019-03-30T14:50:10.009Z,23.80
2019-03-30T14:52:38.997Z,25.30
2019-03-30T14:55:09.994Z,25.90
2019-03-30T14:57:38.787Z,27.10
2019-03-30T15:00:10.502Z,27.80
2019-03-30T15:02:39.502Z,28.20
2019-03-30T15:05:09.152Z,28.90
2019-03-30T15:07:38.067Z,29.70
2019-03-30T15:10:08.938Z,30.10
2019-03-30T15:12:38.372Z,30.90
2019-03-30T15:15:10.452Z,31.60
2019-03-30T15:17:40.987Z,32.50
2019-03-30T15:20:10.863Z,32.70
2019-03-30T15:22:41.083Z,33.10
2019-03-30T15:25:11.005Z,33.30
2019-03-30T15:27:39.845Z,33.80
2019-03-30T15:30:11.144Z,34.20
2019-03-30T15:32:39.909Z,34.80
2019-03-30T15:35:10.833Z,34.70
2019-03-30T15:37:39.686Z,34.40
2019-03-30T15:40:08.622Z,34.20
2019-03-30T15:42:40.021Z,33.70
2019-03-30T15:45:10.514Z,34.20
2019-03-30T15:47:39.422Z,34.40
2019-03-30T15:50:08.852Z,35.10
2019-03-30T15:52:37.714Z,34.70
2019-03-30T15:55:07.786Z,35.10
2019-03-30T15:57:37.260Z,34.60
2019-03-30T16:00:13.827Z,34.20
2019-03-30T16:02:42.726Z,34.60
2019-03-30T16:05:15.210Z,34.80
2019-03-30T16:07:42.579Z,35.10
2019-03-30T16:10:11.540Z,35.60
2019-03-30T16:12:40.349Z,35.50
2019-03-30T16:15:09.691Z,36.00
2019-03-30T16:17:38.573Z,36.00
2019-03-30T16:20:07.685Z,35.80
2019-03-30T16:22:36.566Z,36.20
2019-03-30T16:25:07.550Z,36.60
2019-03-30T16:27:39.148Z,36.70
2019-03-30T16:30:09.225Z,37.60
2019-03-30T16:32:39.499Z,36.90
2019-03-30T16:35:08.497Z,36.50
2019-03-30T16:37:40.404Z,36.40
2019-03-30T16:40:09.341Z,35.50
2019-03-30T16:42:39.054Z,35.70
2019-03-30T16:45:08.617Z,36.20
2019-03-30T16:47:38.977Z,36.90
2019-03-30T16:50:09.598Z,37.00
2019-03-30T16:52:40.950Z,36.60
2019-03-30T16:55:09.320Z,37.50
2019-03-30T16:57:43.688Z,37.40
2019-03-30T17:00:09.802Z,37.00
2019-03-30T17:02:38.609Z,36.90
2019-03-30T17:05:08.481Z,37.10
2019-03-30T17:07:37.414Z,36.70
2019-03-30T17:10:08.023Z,37.30
2019-03-30T17:12:37.118Z,37.80
2019-03-30T17:15:07.422Z,37.80
2019-03-30T17:17:36.245Z,37.60
2019-03-30T17:20:08.559Z,38.20
2019-03-30T17:22:38.555Z,38.30
2019-03-30T17:25:08.783Z,38.80
2019-03-30T17:27:37.922Z,38.30
2019-03-30T17:30:08.700Z,38.20
2019-03-30T17:32:37.531Z,38.80
2019-03-30T17:35:07.087Z,39.10
2019-03-30T17:37:36.032Z,38.90
2019-03-30T17:40:07.561Z,38.80
2019-03-30T17:42:38.685Z,38.60
2019-03-30T17:45:09.039Z,38.90
2019-03-30T17:47:37.984Z,39.10
2019-03-30T17:50:07.902Z,39.30
2019-03-30T17:52:36.839Z,39.50
2019-03-30T17:55:07.603Z,39.70
2019-03-30T17:57:36.423Z,39.90
2019-03-30T18:00:11.144Z,39.90
2019-03-30T18:02:43.057Z,40.10
2019-03-30T18:05:13.048Z,40.40
2019-03-30T18:07:41.902Z,40.10
2019-03-30T18:10:13.175Z,40.50
2019-03-30T18:12:42.049Z,41.00
2019-03-30T18:15:11.562Z,41.10
2019-03-30T18:17:40.481Z,40.90
2019-03-30T18:20:09.788Z,40.90
2019-03-30T18:22:38.725Z,41.10
2019-03-30T18:25:07.781Z,41.20
2019-03-30T18:27:36.805Z,41.20
2019-03-30T18:30:06.831Z,41.10
2019-03-30T18:32:35.957Z,41.30
2019-03-30T18:35:06.590Z,41.50
2019-03-30T18:37:36.519Z,42.20
2019-03-30T18:40:07.790Z,42.00
2019-03-30T18:42:38.074Z,42.00
2019-03-30T18:45:07.926Z,42.10
2019-03-30T18:47:36.774Z,42.30
2019-03-30T18:50:07.419Z,42.40
2019-03-30T18:52:37.117Z,42.70
2019-03-30T18:55:07.310Z,42.80
2019-03-30T18:57:36.114Z,42.50
2019-03-30T19:00:07.198Z,42.80
2019-03-30T19:02:37.279Z,43.10
2019-03-30T19:05:07.084Z,42.90
2019-03-30T19:07:35.921Z,43.40
2019-03-30T19:10:06.935Z,43.80
2019-03-30T19:12:37.208Z,43.90
2019-03-30T19:15:07.467Z,44.00
2019-03-30T19:17:36.428Z,44.30
2019-03-30T19:20:07.145Z,44.30
2019-03-30T19:22:36.022Z,44.30
2019-03-30T19:25:07.160Z,44.40
2019-03-30T19:27:35.975Z,44.40
2019-03-30T19:30:07.738Z,44.20
2019-03-30T19:32:37.605Z,44.80
2019-03-30T19:35:08.369Z,44.60
2019-03-30T19:37:37.129Z,44.70
2019-03-30T19:40:06.951Z,44.60
2019-03-30T19:42:35.883Z,44.70
2019-03-30T19:45:07.335Z,44.90
2019-03-30T19:47:38.784Z,44.70
2019-03-30T19:50:08.653Z,44.60
2019-03-30T19:52:40.093Z,44.70
2019-03-30T19:55:08.377Z,44.50
2019-03-30T19:57:37.208Z,44.80
2019-03-30T20:00:13.953Z,45.50
2019-03-30T20:02:43.669Z,44.60
2019-03-30T20:05:14.999Z,44.70
2019-03-30T20:07:43.985Z,44.90
2019-03-30T20:10:14.355Z,44.90
2019-03-30T20:12:47.543Z,44.90
2019-03-30T20:15:16.968Z,44.70
2019-03-30T20:17:45.788Z,45.20
2019-03-30T20:20:14.805Z,45.20
2019-03-30T20:22:47.228Z,45.80
2019-03-30T20:25:21.842Z,46.00
2019-03-30T20:27:56.168Z,45.80
2019-03-30T20:30:30.605Z,45.70
2019-03-30T20:33:00.864Z,45.80
2019-03-30T20:35:30.968Z,45.80
2019-03-30T20:38:01.048Z,46.00
2019-03-30T20:40:36.056Z,46.10
2019-03-30T20:43:07.040Z,47.20
2019-03-30T20:45:38.443Z,46.10
2019-03-30T20:48:07.267Z,46.20
2019-03-30T20:50:36.097Z,46.70
2019-03-30T20:53:07.834Z,46.80
2019-03-30T20:55:39.469Z,46.80
2019-03-30T20:58:10.522Z,47.60
2019-03-30T21:00:43.580Z,47.60
2019-03-30T21:03:12.590Z,47.70
2019-03-30T21:05:42.902Z,47.70
2019-03-30T21:08:13.546Z,47.90
2019-03-30T21:10:44.618Z,48.80
2019-03-30T21:13:14.750Z,49.00
2019-03-30T21:15:44.776Z,50.00
2019-03-30T21:18:13.612Z,49.40
2019-03-30T21:20:55.191Z,49.30
2019-03-30T21:23:25.656Z,49.40
2019-03-30T21:26:02.153Z,49.70
2019-03-30T21:28:34.770Z,49.60
2019-03-30T21:31:05.819Z,49.80
2019-03-30T21:33:35.585Z,50.00
2019-03-30T21:36:19.743Z,50.70
2019-03-30T21:38:48.359Z,50.00
2019-03-30T21:41:20.920Z,50.00
2019-03-30T21:43:50.763Z,50.20
2019-03-30T21:46:19.779Z,50.70
2019-03-30T21:48:48.652Z,49.70
2019-03-30T21:51:17.858Z,49.40
2019-03-30T21:53:48.781Z,49.30
2019-03-30T21:56:17.619Z,49.60
2019-03-30T21:58:46.601Z,49.50
2019-03-30T22:01:18.055Z,49.90
2019-03-30T22:03:46.912Z,50.20
2019-03-30T22:06:15.803Z,50.20
2019-03-30T22:08:46.126Z,50.90
2019-03-30T22:11:15.750Z,50.40
2019-03-30T22:13:44.630Z,50.80
2019-03-30T22:16:16.682Z,50.70
2019-03-30T22:18:45.432Z,50.70
2019-03-30T22:21:14.371Z,51.00
2019-03-30T22:23:43.246Z,51.40
2019-03-30T22:26:24.956Z,50.70
2019-03-30T22:28:58.349Z,51.00
2019-03-30T22:31:29.664Z,50.80
2019-03-30T22:33:58.493Z,50.20
2019-03-30T22:36:27.652Z,51.00
2019-03-30T22:38:56.547Z,51.30
2019-03-30T22:41:28.663Z,51.30
2019-03-30T22:43:58.965Z,51.30
2019-03-30T22:46:29.013Z,51.50
2019-03-30T22:48:58.506Z,51.70
2019-03-30T22:51:29.019Z,51.70
2019-03-30T22:53:57.824Z,51.90
2019-03-30T22:56:26.748Z,52.10
2019-03-30T22:58:55.879Z,52.20
2019-03-30T23:01:25.610Z,52.50
2019-03-30T23:03:54.462Z,53.20
2019-03-30T23:06:23.441Z,52.80
2019-03-30T23:08:52.547Z,52.50
2019-03-30T23:11:21.385Z,52.50
2019-03-30T23:13:50.258Z,52.20
2019-03-30T23:16:21.373Z,52.10
2019-03-30T23:18:50.422Z,52.40
2019-03-30T23:21:19.937Z,52.50
2019-03-30T23:23:48.802Z,52.50
2019-03-30T23:26:17.605Z,52.50
2019-03-30T23:28:46.419Z,52.30
2019-03-30T23:31:15.300Z,52.60
2019-03-30T23:33:44.121Z,52.80
2019-03-30T23:36:14.898Z,53.20
2019-03-30T23:38:44.308Z,53.20
2019-03-30T23:41:17.279Z,53.00
2019-03-30T23:43:47.477Z,53.20
2019-03-30T23:46:17.635Z,53.40
2019-03-30T23:48:48.785Z,53.50
2019-03-30T23:51:17.817Z,53.70
2019-03-30T23:53:46.702Z,53.90
2019-03-30T23:56:24.153Z,53.60
2019-03-30T23:58:53.757Z,53.80
